createdAt,value
2019-05-17T00:01:29.671Z,6.20
2019-05-17T00:03:56.512Z,6.20
2019-05-17T00:06:22.660Z,6.20
2019-05-17T00:08:48.702Z,6.30
2019-05-17T00:11:16.666Z,6.30
2019-05-17T00:13:42.698Z,6.20
2019-05-17T00:16:08.943Z,6.20
2019-05-17T00:18:36.897Z,6.30
2019-05-17T00:21:02.920Z,6.20
2019-05-17T00:23:28.988Z,6.10
2019-05-17T00:25:56.410Z,6.00
2019-05-17T00:28:22.591Z,6.00
2019-05-17T00:30:48.624Z,6.00
2019-05-17T00:33:16.779Z,6.00
2019-05-17T00:35:42.620Z,6.00
2019-05-17T00:38:08.664Z,5.90
2019-05-17T00:40:36.655Z,6.00
2019-05-17T00:43:03.072Z,6.00
2019-05-17T00:45:29.140Z,6.10
2019-05-17T00:47:57.110Z,6.10
2019-05-17T00:50:23.152Z,6.10
2019-05-17T00:52:49.213Z,6.00
2019-05-17T00:55:17.430Z,6.10
2019-05-17T00:57:43.367Z,6.10
2019-05-17T01:00:09.639Z,6.10
2019-05-17T01:02:36.358Z,6.10
2019-05-17T01:05:06.376Z,6.20
2019-05-17T01:07:32.587Z,6.20
2019-05-17T01:09:58.647Z,6.10
2019-05-17T01:12:26.972Z,6.10
2019-05-17T01:14:52.639Z,6.10
2019-05-17T01:17:18.697Z,6.10
2019-05-17T01:19:47.014Z,6.20
2019-05-17T01:22:12.810Z,6.20
2019-05-17T01:24:38.856Z,6.20
2019-05-17T01:27:06.530Z,6.10
2019-05-17T01:29:32.874Z,6.00
2019-05-17T01:31:58.921Z,6.10
2019-05-17T01:34:27.082Z,6.10
2019-05-17T01:36:52.956Z,6.10
2019-05-17T01:39:21.474Z,6.10
2019-05-17T01:41:46.994Z,6.00
2019-05-17T01:44:13.089Z,6.00
2019-05-17T01:46:39.170Z,6.00
2019-05-17T01:49:06.864Z,5.90
2019-05-17T01:51:33.070Z,5.90
2019-05-17T01:53:59.133Z,5.90
2019-05-17T01:56:26.272Z,5.90
2019-05-17T01:58:52.457Z,5.90
2019-05-17T02:01:18.519Z,5.80
2019-05-17T02:03:46.752Z,5.70
2019-05-17T02:06:12.727Z,5.70
2019-05-17T02:08:38.784Z,5.70
2019-05-17T02:11:06.791Z,5.60
2019-05-17T02:13:32.780Z,5.60
2019-05-17T02:15:58.834Z,5.60
2019-05-17T02:18:26.601Z,5.60
2019-05-17T02:20:52.833Z,5.50
2019-05-17T02:23:18.875Z,5.50
2019-05-17T02:25:47.088Z,5.30
2019-05-17T02:28:12.914Z,5.30
2019-05-17T02:30:39.083Z,5.20
2019-05-17T02:33:05.426Z,5.20
2019-05-17T02:35:33.678Z,5.10
2019-05-17T02:38:02.611Z,5.10
2019-05-17T02:40:27.382Z,5.10
2019-05-17T02:42:53.714Z,5.10
2019-05-17T02:45:23.198Z,5.10
2019-05-17T02:47:48.041Z,5.20
2019-05-17T02:50:15.494Z,5.20
2019-05-17T02:52:43.865Z,5.20
2019-05-17T02:55:12.494Z,5.20
2019-05-17T02:57:37.842Z,5.20
2019-05-17T03:00:05.095Z,5.20
2019-05-17T03:02:34.145Z,5.20
2019-05-17T03:04:59.143Z,5.10
2019-05-17T03:07:25.190Z,4.90
2019-05-17T03:09:53.423Z,4.90
2019-05-17T03:12:19.183Z,4.90
2019-05-17T03:14:45.221Z,4.90
2019-05-17T03:17:14.136Z,5.00
2019-05-17T03:19:39.220Z,5.00
2019-05-17T03:22:07.843Z,5.00
2019-05-17T03:24:33.410Z,5.10
2019-05-17T03:27:02.827Z,5.20
2019-05-17T03:29:28.313Z,5.20
2019-05-17T03:32:00.408Z,5.30
2019-05-17T03:34:26.264Z,5.40
2019-05-17T03:36:56.137Z,5.50
2019-05-17T03:39:18.902Z,5.60
2019-05-17T03:41:45.144Z,5.80
2019-05-17T03:44:13.557Z,5.90
2019-05-17T03:46:42.358Z,6.00
2019-05-17T03:49:07.386Z,6.20
2019-05-17T03:51:33.596Z,6.20
2019-05-17T03:54:02.431Z,6.40
2019-05-17T03:56:27.810Z,6.50
2019-05-17T03:58:53.875Z,6.50
2019-05-17T04:01:22.948Z,6.60
2019-05-17T04:03:47.974Z,6.60
2019-05-17T04:06:14.022Z,6.70
2019-05-17T04:08:42.493Z,6.80
2019-05-17T04:11:20.249Z,6.80
2019-05-17T04:13:36.076Z,6.90
2019-05-17T04:16:08.371Z,6.90
2019-05-17T04:18:33.641Z,7.00
2019-05-17T04:20:59.263Z,7.00
2019-05-17T04:23:25.312Z,7.00
2019-05-17T04:25:53.092Z,7.10
2019-05-17T04:28:22.633Z,7.10
2019-05-17T04:30:47.289Z,7.20
2019-05-17T04:33:13.342Z,7.10
2019-05-17T04:35:39.412Z,7.00
2019-05-17T04:38:05.478Z,7.10
2019-05-17T04:40:34.075Z,7.20
2019-05-17T04:42:59.526Z,7.30
2019-05-17T04:45:25.582Z,7.50
2019-05-17T04:47:52.932Z,7.50
2019-05-17T04:50:19.302Z,7.50
2019-05-17T04:52:45.390Z,7.50
2019-05-17T04:55:13.375Z,7.60
2019-05-17T04:57:43.303Z,7.70
2019-05-17T05:00:08.771Z,7.80
2019-05-17T05:02:34.920Z,7.70
2019-05-17T05:05:03.423Z,7.90
2019-05-17T05:07:29.038Z,7.80
2019-05-17T05:09:55.097Z,8.00
2019-05-17T05:12:22.868Z,8.00
2019-05-17T05:14:49.097Z,7.90
2019-05-17T05:17:15.161Z,8.10
2019-05-17T05:19:42.236Z,8.30
2019-05-17T05:22:08.581Z,8.30
2019-05-17T05:24:34.630Z,8.30
2019-05-17T05:27:02.594Z,8.50
2019-05-17T05:29:28.643Z,8.50
2019-05-17T05:31:54.752Z,8.60
2019-05-17T05:34:21.576Z,8.60
2019-05-17T05:36:47.923Z,8.60
2019-05-17T05:39:13.972Z,8.70
2019-05-17T05:41:42.522Z,8.60
2019-05-17T05:44:08.101Z,8.60
2019-05-17T05:46:34.172Z,8.60
2019-05-17T05:49:01.731Z,8.80
2019-05-17T05:51:28.176Z,9.00
2019-05-17T05:53:54.230Z,9.10
2019-05-17T05:56:22.006Z,9.30
2019-05-17T05:58:48.230Z,9.40
2019-05-17T06:01:14.277Z,9.60
2019-05-17T06:03:41.429Z,9.70
2019-05-17T06:06:07.592Z,9.80
2019-05-17T06:08:33.644Z,9.80
2019-05-17T06:11:01.950Z,10.00
2019-05-17T06:13:27.669Z,10.00
2019-05-17T06:15:53.717Z,10.00
2019-05-17T06:18:19.777Z,10.20
2019-05-17T06:20:45.820Z,10.40
2019-05-17T06:23:12.473Z,10.50
2019-05-17T06:25:38.721Z,10.70
2019-05-17T06:28:04.774Z,10.80
2019-05-17T06:30:32.371Z,11.00
2019-05-17T06:32:58.697Z,11.10
2019-05-17T06:35:24.765Z,11.30
2019-05-17T06:37:50.816Z,11.30
2019-05-17T06:40:17.274Z,11.50
2019-05-17T06:42:45.543Z,11.70
2019-05-17T06:45:13.186Z,11.90
2019-05-17T06:47:39.281Z,12.00
2019-05-17T06:50:05.929Z,12.00
2019-05-17T06:52:32.675Z,12.20
2019-05-17T06:54:58.960Z,12.30
2019-05-17T06:57:25.122Z,12.40
2019-05-17T06:59:51.164Z,12.50
2019-05-17T07:02:19.645Z,12.60
2019-05-17T07:04:45.160Z,12.80
2019-05-17T07:07:24.932Z,12.90
2019-05-17T07:09:50.998Z,12.90
2019-05-17T07:12:17.036Z,13.00
2019-05-17T07:14:43.089Z,13.10
2019-05-17T07:17:09.848Z,13.30
2019-05-17T07:19:36.002Z,13.50
2019-05-17T07:22:02.137Z,13.20
2019-05-17T07:24:29.997Z,13.30
2019-05-17T07:26:56.154Z,13.40
2019-05-17T07:29:22.200Z,13.60
2019-05-17T07:31:49.770Z,13.90
2019-05-17T07:34:15.906Z,13.90
2019-05-17T07:36:41.974Z,13.90
2019-05-17T07:39:10.598Z,14.10
2019-05-17T07:41:36.003Z,14.40
2019-05-17T07:44:02.037Z,14.40
2019-05-17T07:46:29.448Z,14.30
2019-05-17T07:48:55.674Z,14.40
2019-05-17T07:51:21.713Z,14.50
2019-05-17T07:53:49.555Z,14.60
2019-05-17T07:56:15.722Z,14.80
2019-05-17T07:58:41.776Z,15.10
2019-05-17T08:01:10.058Z,15.40
2019-05-17T08:03:35.817Z,15.70
2019-05-17T08:06:01.862Z,15.50
2019-05-17T08:08:30.951Z,15.60
2019-05-17T08:10:55.897Z,15.80
2019-05-17T08:13:29.894Z,16.00
2019-05-17T08:15:50.250Z,16.20
2019-05-17T08:18:16.456Z,16.20
2019-05-17T08:20:42.524Z,16.30
2019-05-17T08:23:10.518Z,16.30
2019-05-17T08:25:49.669Z,16.50
2019-05-17T08:28:05.089Z,16.60
2019-05-17T08:30:31.141Z,16.70
2019-05-17T08:32:57.184Z,16.70
2019-05-17T08:35:23.225Z,16.70
2019-05-17T08:37:49.915Z,16.80
2019-05-17T08:40:16.337Z,16.90
2019-05-17T08:42:42.402Z,17.10
2019-05-17T08:45:09.733Z,17.20
2019-05-17T08:47:36.010Z,17.30
2019-05-17T08:50:05.483Z,17.30
2019-05-17T08:52:31.526Z,17.50
2019-05-17T08:55:00.157Z,17.50
2019-05-17T08:57:25.530Z,17.50
2019-05-17T08:59:51.593Z,17.60
2019-05-17T09:02:19.741Z,17.80
2019-05-17T09:04:45.612Z,17.80
2019-05-17T09:07:11.644Z,17.90
2019-05-17T09:09:39.432Z,17.80
2019-05-17T09:12:05.665Z,17.70
2019-05-17T09:14:31.712Z,17.60
2019-05-17T09:17:00.244Z,17.60
2019-05-17T09:19:25.724Z,17.80
2019-05-17T09:21:51.799Z,18.00
2019-05-17T09:24:19.478Z,18.10
2019-05-17T09:26:45.675Z,18.40
2019-05-17T09:29:11.738Z,18.50
2019-05-17T09:31:40.258Z,18.40
2019-05-17T09:34:05.831Z,18.60
2019-05-17T09:36:31.874Z,18.60
2019-05-17T09:38:59.926Z,18.80
2019-05-17T09:41:25.874Z,18.50
2019-05-17T09:43:51.939Z,18.50
2019-05-17T09:46:19.686Z,18.30
2019-05-17T09:48:47.070Z,18.40
2019-05-17T09:51:13.418Z,18.50
2019-05-17T09:53:40.157Z,18.70
2019-05-17T09:56:06.337Z,18.90
2019-05-17T09:58:32.416Z,19.00
2019-05-17T10:01:01.046Z,19.00
2019-05-17T10:03:26.432Z,19.30
2019-05-17T10:05:52.489Z,19.60
2019-05-17T10:08:18.537Z,19.70
2019-05-17T10:10:44.595Z,19.80
2019-05-17T10:13:10.644Z,20.20
2019-05-17T10:15:37.493Z,20.20
2019-05-17T10:18:03.561Z,20.40
2019-05-17T10:20:29.608Z,20.50
2019-05-17T10:22:55.685Z,20.50
2019-05-17T10:25:21.737Z,20.30
2019-05-17T10:27:49.670Z,20.30
2019-05-17T10:30:15.976Z,20.30
2019-05-17T10:32:42.016Z,20.40
2019-05-17T10:35:08.771Z,20.40
2019-05-17T10:37:34.816Z,20.30
2019-05-17T10:40:00.887Z,20.50
2019-05-17T10:42:26.947Z,20.50
2019-05-17T10:44:54.785Z,20.80
2019-05-17T10:47:20.940Z,21.00
2019-05-17T10:49:49.491Z,21.30
2019-05-17T10:52:14.985Z,21.30
2019-05-17T10:54:41.120Z,21.40
2019-05-17T10:57:07.173Z,21.20
2019-05-17T10:59:33.212Z,20.80
2019-05-17T11:01:59.791Z,21.10
2019-05-17T11:04:26.024Z,21.20
2019-05-17T11:06:52.092Z,21.10
2019-05-17T11:09:20.587Z,21.40
2019-05-17T11:11:46.112Z,21.60
2019-05-17T11:14:12.166Z,21.50
2019-05-17T11:16:38.203Z,21.70
2019-05-17T11:19:04.355Z,21.90
2019-05-17T11:21:30.402Z,21.80
2019-05-17T11:23:56.465Z,21.80
2019-05-17T11:26:22.513Z,22.10
2019-05-17T11:28:48.587Z,22.20
2019-05-17T11:31:14.630Z,22.20
2019-05-17T11:33:40.691Z,22.10
2019-05-17T11:36:06.732Z,22.20
2019-05-17T11:38:32.777Z,22.50
2019-05-17T11:40:58.842Z,22.80
2019-05-17T11:43:24.979Z,23.00
2019-05-17T11:45:51.057Z,23.30
2019-05-17T11:48:17.107Z,23.20
2019-05-17T11:50:43.168Z,23.20
2019-05-17T11:53:09.202Z,23.00
2019-05-17T11:55:35.772Z,22.90
2019-05-17T11:58:02.013Z,22.80
2019-05-17T12:00:28.764Z,22.60
2019-05-17T12:02:54.815Z,22.50
2019-05-17T12:05:20.863Z,22.60
2019-05-17T12:07:46.922Z,22.40
2019-05-17T12:10:13.073Z,22.60
2019-05-17T12:12:39.239Z,23.00
2019-05-17T12:15:06.989Z,23.50
2019-05-17T12:17:33.040Z,23.90
2019-05-17T12:19:59.086Z,24.10
2019-05-17T12:22:25.140Z,24.30
2019-05-17T12:24:51.188Z,24.60
2019-05-17T12:27:17.245Z,24.70
2019-05-17T12:29:43.318Z,24.80
2019-05-17T12:32:15.927Z,25.50
2019-05-17T12:34:37.330Z,26.20
2019-05-17T12:37:03.575Z,26.90
2019-05-17T12:39:29.631Z,27.20
2019-05-17T12:42:21.761Z,26.60
2019-05-17T12:44:47.817Z,26.70
2019-05-17T12:47:13.882Z,27.00
2019-05-17T12:49:39.938Z,27.20
2019-05-17T12:52:05.983Z,27.80
2019-05-17T12:54:32.045Z,28.20
2019-05-17T12:56:58.421Z,29.00
2019-05-17T12:59:24.464Z,29.40
2019-05-17T13:01:50.513Z,29.80
2019-05-17T13:04:16.618Z,29.70
2019-05-17T13:06:42.677Z,29.40
2019-05-17T13:09:08.740Z,29.20
2019-05-17T13:11:34.781Z,29.30
2019-05-17T13:14:00.825Z,29.80
2019-05-17T13:16:26.889Z,29.70
2019-05-17T13:18:52.965Z,29.80
2019-05-17T13:21:19.094Z,28.80
2019-05-17T13:23:45.143Z,27.70
2019-05-17T13:26:11.188Z,27.00
2019-05-17T13:28:37.249Z,26.50
2019-05-17T13:31:03.287Z,26.00
2019-05-17T13:33:29.456Z,25.60
2019-05-17T13:35:55.592Z,25.50
2019-05-17T13:38:21.660Z,25.10
2019-05-17T13:40:47.721Z,24.90
2019-05-17T13:43:13.892Z,24.80
2019-05-17T13:45:43.539Z,25.00
2019-05-17T13:48:08.034Z,25.30
2019-05-17T13:50:34.108Z,25.40
2019-05-17T13:53:00.245Z,25.30
2019-05-17T13:55:26.316Z,25.20
2019-05-17T13:57:52.376Z,25.10
2019-05-17T14:00:18.709Z,24.90
2019-05-17T14:02:44.768Z,24.80
2019-05-17T14:05:11.417Z,24.70
2019-05-17T14:07:37.473Z,24.80
2019-05-17T14:10:06.984Z,24.90
2019-05-17T14:12:33.036Z,25.30
2019-05-17T14:14:59.113Z,26.30
2019-05-17T14:17:25.184Z,27.10
2019-05-17T14:19:51.316Z,27.90
2019-05-17T14:22:17.372Z,28.20
2019-05-17T14:24:43.421Z,28.20
2019-05-17T14:27:09.543Z,28.60
2019-05-17T14:29:35.770Z,28.90
2019-05-17T14:32:02.259Z,29.00
2019-05-17T14:34:28.496Z,29.00
2019-05-17T14:36:54.561Z,29.10
2019-05-17T14:39:20.697Z,28.50
2019-05-17T14:41:46.773Z,28.00
2019-05-17T14:44:12.824Z,27.30
2019-05-17T14:46:38.914Z,26.80
2019-05-17T14:49:04.985Z,26.50
2019-05-17T14:51:31.116Z,26.00
2019-05-17T14:53:57.187Z,25.50
2019-05-17T14:56:23.229Z,25.00
2019-05-17T14:58:49.303Z,24.40
2019-05-17T15:01:15.332Z,24.30
2019-05-17T15:03:41.394Z,23.90
2019-05-17T15:06:07.433Z,23.50
2019-05-17T15:08:33.493Z,23.40
2019-05-17T15:10:59.537Z,23.00
2019-05-17T15:13:25.604Z,22.70
2019-05-17T15:15:51.649Z,22.60
2019-05-17T15:18:17.712Z,22.70
2019-05-17T15:20:43.747Z,22.70
2019-05-17T15:23:09.801Z,22.70
2019-05-17T15:25:35.851Z,22.50
2019-05-17T15:28:03.487Z,22.10
2019-05-17T15:30:29.926Z,22.00
2019-05-17T15:32:55.968Z,21.90
2019-05-17T15:35:22.393Z,21.80
2019-05-17T15:37:48.548Z,21.50
2019-05-17T15:40:14.713Z,21.50
2019-05-17T15:42:44.854Z,21.60
2019-05-17T15:45:08.775Z,21.70
2019-05-17T15:47:34.900Z,22.00
2019-05-17T15:50:01.032Z,22.30
2019-05-17T15:52:27.104Z,22.40
2019-05-17T15:54:53.438Z,22.60
2019-05-17T15:57:19.489Z,23.10
2019-05-17T15:59:45.554Z,23.70
2019-05-17T16:02:11.627Z,24.70
2019-05-17T16:04:37.677Z,26.00
2019-05-17T16:07:03.789Z,26.90
2019-05-17T16:09:29.915Z,27.00
2019-05-17T16:11:55.960Z,27.50
2019-05-17T16:14:22.351Z,27.30
2019-05-17T16:16:48.407Z,27.00
2019-05-17T16:19:14.472Z,26.60
2019-05-17T16:21:40.521Z,26.10
2019-05-17T16:24:06.562Z,24.50
2019-05-17T16:26:32.631Z,25.20
2019-05-17T16:28:58.673Z,24.90
2019-05-17T16:31:24.734Z,24.90
2019-05-17T16:33:51.098Z,24.80
2019-05-17T16:36:17.548Z,24.70
2019-05-17T16:38:43.592Z,24.50
2019-05-17T16:41:09.657Z,24.30
2019-05-17T16:43:35.745Z,24.20
2019-05-17T16:46:01.789Z,24.30
2019-05-17T16:48:27.861Z,24.30
2019-05-17T16:50:53.889Z,24.10
2019-05-17T16:53:19.952Z,23.80
2019-05-17T16:55:45.998Z,23.50
2019-05-17T16:58:12.156Z,23.30
2019-05-17T17:00:42.399Z,23.20
2019-05-17T17:03:08.462Z,23.10
2019-05-17T17:05:34.517Z,22.80
2019-05-17T17:08:00.563Z,22.40
2019-05-17T17:10:26.645Z,21.90
2019-05-17T17:12:52.691Z,21.50
2019-05-17T17:15:18.952Z,21.30
2019-05-17T17:17:45.010Z,21.00
2019-05-17T17:20:11.690Z,20.60
2019-05-17T17:22:37.729Z,20.50
2019-05-17T17:25:05.584Z,20.20
2019-05-17T17:27:31.642Z,19.90
2019-05-17T17:29:57.712Z,19.80
2019-05-17T17:32:23.764Z,19.80
2019-05-17T17:34:49.809Z,19.70
2019-05-17T17:37:15.889Z,19.60
2019-05-17T17:39:41.954Z,19.40
2019-05-17T17:42:08.032Z,19.30
2019-05-17T17:44:34.081Z,19.20
2019-05-17T17:47:00.131Z,19.00
2019-05-17T17:49:26.202Z,18.90
2019-05-17T17:51:52.252Z,18.70
2019-05-17T17:54:18.317Z,18.50
2019-05-17T17:56:44.356Z,18.40
2019-05-17T17:59:10.419Z,18.30
2019-05-17T18:01:36.474Z,18.20
2019-05-17T18:04:02.632Z,18.00
2019-05-17T18:06:28.678Z,17.90
2019-05-17T18:08:54.752Z,17.80
2019-05-17T18:11:20.798Z,17.60
2019-05-17T18:13:46.861Z,17.40
2019-05-17T18:16:13.029Z,17.30
2019-05-17T18:18:39.184Z,17.20
2019-05-17T18:21:05.409Z,17.10
2019-05-17T18:23:31.609Z,17.00
2019-05-17T18:25:58.052Z,16.90
2019-05-17T18:28:24.302Z,16.70
2019-05-17T18:30:50.363Z,16.70
2019-05-17T18:33:16.512Z,16.60
2019-05-17T18:35:42.567Z,16.40
2019-05-17T18:38:08.732Z,16.30
2019-05-17T18:40:34.791Z,16.20
2019-05-17T18:43:01.058Z,16.10
2019-05-17T18:45:27.500Z,16.00
2019-05-17T18:47:53.562Z,15.90
2019-05-17T18:50:21.515Z,15.90
2019-05-17T18:52:47.601Z,15.70
2019-05-17T18:55:13.868Z,15.60
2019-05-17T18:57:40.012Z,15.60
2019-05-17T19:00:07.669Z,15.50
2019-05-17T19:02:33.713Z,15.50
2019-05-17T19:04:59.772Z,15.40
2019-05-17T19:07:25.829Z,15.40
2019-05-17T19:09:51.884Z,15.30
2019-05-17T19:12:18.048Z,15.20
2019-05-17T19:14:44.109Z,15.00
2019-05-17T19:17:10.154Z,14.90
2019-05-17T19:19:36.216Z,14.90
2019-05-17T19:22:02.361Z,14.80
2019-05-17T19:24:28.532Z,14.70
2019-05-17T19:26:54.589Z,14.70
2019-05-17T19:29:20.667Z,14.60
2019-05-17T19:31:46.713Z,14.50
2019-05-17T19:34:12.805Z,14.60
2019-05-17T19:36:41.499Z,14.40
2019-05-17T19:39:06.821Z,14.40
2019-05-17T19:41:32.949Z,14.30
2019-05-17T19:43:59.040Z,14.20
2019-05-17T19:46:25.168Z,14.20
2019-05-17T19:48:51.449Z,14.10
2019-05-17T19:51:17.490Z,14.10
2019-05-17T19:53:43.557Z,14.10
2019-05-17T19:56:09.617Z,14.00
2019-05-17T19:58:35.687Z,14.00
2019-05-17T20:01:01.782Z,13.90
2019-05-17T20:03:27.949Z,13.80
2019-05-17T20:05:53.990Z,13.80
2019-05-17T20:08:20.075Z,13.80
2019-05-17T20:10:46.129Z,13.80
2019-05-17T20:13:12.169Z,13.80
2019-05-17T20:15:38.244Z,13.70
2019-05-17T20:18:04.314Z,13.70
2019-05-17T20:20:30.447Z,13.70
2019-05-17T20:22:56.500Z,13.70
2019-05-17T20:25:22.545Z,13.70
2019-05-17T20:27:48.592Z,13.70
2019-05-17T20:30:15.177Z,13.60
2019-05-17T20:32:41.221Z,13.70
2019-05-17T20:35:07.814Z,13.60
2019-05-17T20:37:33.858Z,13.60
2019-05-17T20:39:59.915Z,13.60
2019-05-17T20:42:26.059Z,13.60
2019-05-17T20:44:52.116Z,13.50
2019-05-17T20:47:18.183Z,13.50
2019-05-17T20:49:44.230Z,13.50
2019-05-17T20:52:13.116Z,13.40
2019-05-17T20:54:39.177Z,13.40
2019-05-17T20:57:05.229Z,13.40
2019-05-17T20:59:31.397Z,13.40
2019-05-17T21:01:57.445Z,13.40
2019-05-17T21:04:23.518Z,13.30
2019-05-17T21:06:49.560Z,13.30
2019-05-17T21:09:15.600Z,13.30
2019-05-17T21:11:41.660Z,13.30
2019-05-17T21:14:07.717Z,13.20
2019-05-17T21:16:33.766Z,13.10
2019-05-17T21:18:59.820Z,13.10
2019-05-17T21:21:25.878Z,13.00
2019-05-17T21:23:51.918Z,13.00
2019-05-17T21:26:17.978Z,12.50
2019-05-17T21:28:47.059Z,12.90
2019-05-17T21:31:11.998Z,12.80
2019-05-17T21:33:38.064Z,12.70
2019-05-17T21:36:04.513Z,12.70
2019-05-17T21:38:30.557Z,12.60
2019-05-17T21:40:56.724Z,12.50
2019-05-17T21:43:22.776Z,12.40
2019-05-17T21:46:02.544Z,12.40
2019-05-17T21:48:16.793Z,12.20
2019-05-17T21:50:42.843Z,12.20
2019-05-17T21:53:08.912Z,12.20
2019-05-17T21:55:34.965Z,12.10
2019-05-17T21:58:01.009Z,12.00
2019-05-17T22:00:50.893Z,11.90
2019-05-17T22:03:16.925Z,12.00
2019-05-17T22:05:42.993Z,11.90
2019-05-17T22:08:09.067Z,11.90
2019-05-17T22:10:35.121Z,11.70
2019-05-17T22:13:01.165Z,11.50
2019-05-17T22:15:27.227Z,11.50
2019-05-17T22:17:53.271Z,11.50
2019-05-17T22:20:19.313Z,11.50
2019-05-17T22:22:45.370Z,11.50
2019-05-17T22:25:11.516Z,11.60
2019-05-17T22:27:37.579Z,11.50
2019-05-17T22:30:07.377Z,11.40
2019-05-17T22:32:33.533Z,11.40
2019-05-17T22:34:59.590Z,11.30
2019-05-17T22:37:25.641Z,11.30
2019-05-17T22:39:51.744Z,11.30
2019-05-17T22:42:17.796Z,11.30
2019-05-17T22:44:43.861Z,11.20
2019-05-17T22:47:09.938Z,11.20
2019-05-17T22:49:35.990Z,11.20
2019-05-17T22:52:02.052Z,11.20
2019-05-17T22:54:28.095Z,11.10
2019-05-17T22:56:54.146Z,11.10
2019-05-17T22:59:20.207Z,11.00
2019-05-17T23:01:46.250Z,11.10
2019-05-17T23:04:12.323Z,11.10
2019-05-17T23:06:38.465Z,11.00
2019-05-17T23:09:05.028Z,9.20
2019-05-17T23:11:31.072Z,10.60
2019-05-17T23:13:57.120Z,10.50
2019-05-17T23:16:23.184Z,10.40
2019-05-17T23:19:07.762Z,10.40
2019-05-17T23:21:33.964Z,10.40
2019-05-17T23:24:00.018Z,10.30
2019-05-17T23:26:26.069Z,10.20
2019-05-17T23:28:52.114Z,10.30
2019-05-17T23:31:18.189Z,10.20
2019-05-17T23:33:44.337Z,10.20
2019-05-17T23:36:10.409Z,10.10
2019-05-17T23:38:36.451Z,10.10
2019-05-17T23:41:02.520Z,10.00
2019-05-17T23:43:28.561Z,9.90
2019-05-17T23:45:54.620Z,9.80
2019-05-17T23:48:20.680Z,9.80
2019-05-17T23:50:46.723Z,9.80
2019-05-17T23:53:12.873Z,9.90
2019-05-17T23:55:38.933Z,9.80
2019-05-17T23:58:05.038Z,9.80
